sensor_id;sensor_type;location;lat;lon;timestamp;temperature;humidity
64670;DHT22;51080;51.690;5.174;2023-02-28T00:02:56;0.70;65.90
64670;DHT22;51080;51.690;5.174;2023-02-28T00:09:11;0.70;66.00
64670;DHT22;51080;51.690;5.174;2023-02-28T00:14:57;0.70;65.80
64670;DHT22;51080;51.690;5.174;2023-02-28T00:20:41;0.60;66.20
64670;DHT22;51080;51.690;5.174;2023-02-28T00:26:26;0.60;66.30
64670;DHT22;51080;51.690;5.174;2023-02-28T00:32:10;0.60;66.40
64670;DHT22;51080;51.690;5.174;2023-02-28T00:37:55;0.50;66.50
64670;DHT22;51080;51.690;5.174;2023-02-28T00:43:39;0.50;66.50
64670;DHT22;51080;51.690;5.174;2023-02-28T00:49:25;0.50;66.70
64670;DHT22;51080;51.690;5.174;2023-02-28T00:55:10;0.60;66.70
64670;DHT22;51080;51.690;5.174;2023-02-28T01:00:55;0.80;66.50
64670;DHT22;51080;51.690;5.174;2023-02-28T01:06:40;0.90;66.40
64670;DHT22;51080;51.690;5.174;2023-02-28T01:12:24;1.10;66.40
64670;DHT22;51080;51.690;5.174;2023-02-28T01:18:09;1.20;66.30
64670;DHT22;51080;51.690;5.174;2023-02-28T01:23:56;1.20;66.50
64670;DHT22;51080;51.690;5.174;2023-02-28T01:29:41;1.20;66.40
64670;DHT22;51080;51.690;5.174;2023-02-28T01:35:24;1.20;66.60
64670;DHT22;51080;51.690;5.174;2023-02-28T01:41:24;1.20;66.80
64670;DHT22;51080;51.690;5.174;2023-02-28T01:47:08;1.20;66.90
64670;DHT22;51080;51.690;5.174;2023-02-28T01:52:55;1.30;66.80
64670;DHT22;51080;51.690;5.174;2023-02-28T01:58:42;1.40;66.60
64670;DHT22;51080;51.690;5.174;2023-02-28T02:04:32;1.50;66.50
64670;DHT22;51080;51.690;5.174;2023-02-28T02:10:24;1.60;66.40
64670;DHT22;51080;51.690;5.174;2023-02-28T02:16:59;1.70;66.50
64670;DHT22;51080;51.690;5.174;2023-02-28T02:23:22;1.70;66.40
64670;DHT22;51080;51.690;5.174;2023-02-28T02:35:27;1.90;66.80
64670;DHT22;51080;51.690;5.174;2023-02-28T02:41:19;1.90;66.90
64670;DHT22;51080;51.690;5.174;2023-02-28T02:47:18;2.00;66.90
64670;DHT22;51080;51.690;5.174;2023-02-28T02:53:06;2.00;66.90
64670;DHT22;51080;51.690;5.174;2023-02-28T02:58:54;2.10;66.90
64670;DHT22;51080;51.690;5.174;2023-02-28T03:04:45;2.10;67.10
64670;DHT22;51080;51.690;5.174;2023-02-28T03:10:40;2.10;67.00
64670;DHT22;51080;51.690;5.174;2023-02-28T03:16:35;2.20;67.20
64670;DHT22;51080;51.690;5.174;2023-02-28T03:22:44;2.30;67.10
64670;DHT22;51080;51.690;5.174;2023-02-28T03:28:49;2.30;67.20
64670;DHT22;51080;51.690;5.174;2023-02-28T03:34:42;2.30;67.30
64670;DHT22;51080;51.690;5.174;2023-02-28T03:40:32;2.40;67.20
64670;DHT22;51080;51.690;5.174;2023-02-28T03:46:22;2.40;67.20
64670;DHT22;51080;51.690;5.174;2023-02-28T03:52:08;2.40;67.20
64670;DHT22;51080;51.690;5.174;2023-02-28T03:58:01;2.40;67.40
64670;DHT22;51080;51.690;5.174;2023-02-28T04:03:49;2.40;67.30
64670;DHT22;51080;51.690;5.174;2023-02-28T04:09:36;2.40;67.30
64670;DHT22;51080;51.690;5.174;2023-02-28T04:15:20;2.40;67.40
64670;DHT22;51080;51.690;5.174;2023-02-28T04:21:06;2.40;67.40
64670;DHT22;51080;51.690;5.174;2023-02-28T04:26:56;2.40;67.60
64670;DHT22;51080;51.690;5.174;2023-02-28T04:32:44;2.40;67.80
64670;DHT22;51080;51.690;5.174;2023-02-28T04:38:32;2.40;67.80
64670;DHT22;51080;51.690;5.174;2023-02-28T04:44:19;2.50;67.70
64670;DHT22;51080;51.690;5.174;2023-02-28T04:50:10;2.50;67.70
64670;DHT22;51080;51.690;5.174;2023-02-28T04:55:56;2.50;67.50
64670;DHT22;51080;51.690;5.174;2023-02-28T05:01:46;2.50;67.40
64670;DHT22;51080;51.690;5.174;2023-02-28T05:07:32;2.50;67.20
64670;DHT22;51080;51.690;5.174;2023-02-28T05:13:20;2.50;67.10
64670;DHT22;51080;51.690;5.174;2023-02-28T05:19:05;2.50;66.90
64670;DHT22;51080;51.690;5.174;2023-02-28T05:24:50;2.60;66.80
64670;DHT22;51080;51.690;5.174;2023-02-28T05:37:00;2.60;67.10
64670;DHT22;51080;51.690;5.174;2023-02-28T05:42:50;2.80;66.40
64670;DHT22;51080;51.690;5.174;2023-02-28T05:48:40;2.70;66.20
64670;DHT22;51080;51.690;5.174;2023-02-28T05:54:37;2.70;66.30
64670;DHT22;51080;51.690;5.174;2023-02-28T06:00:24;2.70;66.50
64670;DHT22;51080;51.690;5.174;2023-02-28T06:06:09;2.80;66.40
64670;DHT22;51080;51.690;5.174;2023-02-28T06:12:24;2.80;66.60
64670;DHT22;51080;51.690;5.174;2023-02-28T06:18:11;2.70;66.50
64670;DHT22;51080;51.690;5.174;2023-02-28T06:23:56;2.70;66.50
64670;DHT22;51080;51.690;5.174;2023-02-28T06:29:41;2.70;66.40
64670;DHT22;51080;51.690;5.174;2023-02-28T06:35:23;2.70;66.50
64670;DHT22;51080;51.690;5.174;2023-02-28T06:41:08;2.70;66.50
64670;DHT22;51080;51.690;5.174;2023-02-28T06:46:51;2.70;66.40
64670;DHT22;51080;51.690;5.174;2023-02-28T06:52:35;2.80;66.50
64670;DHT22;51080;51.690;5.174;2023-02-28T06:58:19;2.80;66.50
64670;DHT22;51080;51.690;5.174;2023-02-28T07:04:05;2.90;66.40
64670;DHT22;51080;51.690;5.174;2023-02-28T07:09:50;2.90;66.30
64670;DHT22;51080;51.690;5.174;2023-02-28T07:15:37;3.00;66.10
64670;DHT22;51080;51.690;5.174;2023-02-28T07:21:22;3.00;66.10
64670;DHT22;51080;51.690;5.174;2023-02-28T07:27:36;3.10;66.00
64670;DHT22;51080;51.690;5.174;2023-02-28T07:33:20;3.20;65.80
64670;DHT22;51080;51.690;5.174;2023-02-28T07:39:04;3.30;65.60
64670;DHT22;51080;51.690;5.174;2023-02-28T07:44:48;3.40;65.40
64670;DHT22;51080;51.690;5.174;2023-02-28T07:50:32;3.40;65.30
64670;DHT22;51080;51.690;5.174;2023-02-28T07:56:17;3.60;65.10
64670;DHT22;51080;51.690;5.174;2023-02-28T08:02:01;3.70;64.60
64670;DHT22;51080;51.690;5.174;2023-02-28T08:07:46;3.90;63.70
64670;DHT22;51080;51.690;5.174;2023-02-28T08:13:31;4.00;62.30
64670;DHT22;51080;51.690;5.174;2023-02-28T08:19:15;4.20;61.40
64670;DHT22;51080;51.690;5.174;2023-02-28T08:25:00;4.30;60.20
64670;DHT22;51080;51.690;5.174;2023-02-28T08:30:44;4.40;59.30
64670;DHT22;51080;51.690;5.174;2023-02-28T08:36:27;4.50;59.40
64670;DHT22;51080;51.690;5.174;2023-02-28T08:42:11;4.80;57.80
64670;DHT22;51080;51.690;5.174;2023-02-28T08:47:56;5.00;55.40
64670;DHT22;51080;51.690;5.174;2023-02-28T08:54:10;5.00;54.70
64670;DHT22;51080;51.690;5.174;2023-02-28T08:59:54;4.80;56.20
64670;DHT22;51080;51.690;5.174;2023-02-28T09:06:10;4.70;54.30
64670;DHT22;51080;51.690;5.174;2023-02-28T09:11:56;5.00;53.80
64670;DHT22;51080;51.690;5.174;2023-02-28T09:17:40;5.20;53.00
64670;DHT22;51080;51.690;5.174;2023-02-28T09:23:24;5.60;51.90
64670;DHT22;51080;51.690;5.174;2023-02-28T09:29:09;5.90;50.80
64670;DHT22;51080;51.690;5.174;2023-02-28T09:34:52;5.90;51.00
64670;DHT22;51080;51.690;5.174;2023-02-28T09:46:42;5.50;49.90
64670;DHT22;51080;51.690;5.174;2023-02-28T09:52:30;5.30;51.70
64670;DHT22;51080;51.690;5.174;2023-02-28T09:58:28;5.20;49.30
64670;DHT22;51080;51.690;5.174;2023-02-28T10:10:14;5.20;49.20
64670;DHT22;51080;51.690;5.174;2023-02-28T10:16:00;5.30;50.00
64670;DHT22;51080;51.690;5.174;2023-02-28T10:21:59;5.50;49.10
64670;DHT22;51080;51.690;5.174;2023-02-28T10:27:44;5.80;49.30
64670;DHT22;51080;51.690;5.174;2023-02-28T10:33:32;6.20;48.10
64670;DHT22;51080;51.690;5.174;2023-02-28T10:39:42;7.10;47.40
64670;DHT22;51080;51.690;5.174;2023-02-28T10:45:33;8.50;44.70
64670;DHT22;51080;51.690;5.174;2023-02-28T10:51:19;9.90;43.00
64670;DHT22;51080;51.690;5.174;2023-02-28T10:57:23;11.00;41.10
64670;DHT22;51080;51.690;5.174;2023-02-28T11:09:25;13.50;37.50
64670;DHT22;51080;51.690;5.174;2023-02-28T11:15:26;14.60;37.30
64670;DHT22;51080;51.690;5.174;2023-02-28T11:21:18;16.20;36.20
64670;DHT22;51080;51.690;5.174;2023-02-28T11:27:03;17.10;35.60
64670;DHT22;51080;51.690;5.174;2023-02-28T11:32:50;17.40;34.90
64670;DHT22;51080;51.690;5.174;2023-02-28T11:38:36;17.40;34.10
64670;DHT22;51080;51.690;5.174;2023-02-28T11:50:49;16.90;34.40
64670;DHT22;51080;51.690;5.174;2023-02-28T11:56:43;16.10;33.90
64670;DHT22;51080;51.690;5.174;2023-02-28T12:20:57;14.10;35.60
64670;DHT22;51080;51.690;5.174;2023-02-28T12:27:13;13.90;36.30
64670;DHT22;51080;51.690;5.174;2023-02-28T12:33:06;13.60;37.20
64670;DHT22;51080;51.690;5.174;2023-02-28T12:39:12;13.60;36.30
64670;DHT22;51080;51.690;5.174;2023-02-28T12:45:39;13.60;36.50
64670;DHT22;51080;51.690;5.174;2023-02-28T12:51:24;13.60;35.90
64670;DHT22;51080;51.690;5.174;2023-02-28T12:57:21;13.60;36.40
64670;DHT22;51080;51.690;5.174;2023-02-28T13:03:40;13.60;36.60
64670;DHT22;51080;51.690;5.174;2023-02-28T13:09:56;13.80;36.50
64670;DHT22;51080;51.690;5.174;2023-02-28T13:16:05;14.00;37.10
64670;DHT22;51080;51.690;5.174;2023-02-28T13:21:50;14.20;36.80
64670;DHT22;51080;51.690;5.174;2023-02-28T13:27:37;14.60;36.10
64670;DHT22;51080;51.690;5.174;2023-02-28T13:33:28;14.70;36.40
64670;DHT22;51080;51.690;5.174;2023-02-28T13:45:28;15.30;36.50
64670;DHT22;51080;51.690;5.174;2023-02-28T14:09:58;16.10;35.50
64670;DHT22;51080;51.690;5.174;2023-02-28T14:15:56;16.00;35.30
64670;DHT22;51080;51.690;5.174;2023-02-28T14:39:58;12.40;37.10
64670;DHT22;51080;51.690;5.174;2023-02-28T14:45:42;11.80;38.00
64670;DHT22;51080;51.690;5.174;2023-02-28T14:51:26;11.40;37.90
64670;DHT22;51080;51.690;5.174;2023-02-28T14:57:30;11.00;37.80
64670;DHT22;51080;51.690;5.174;2023-02-28T15:03:24;10.60;37.90
64670;DHT22;51080;51.690;5.174;2023-02-28T15:09:17;10.20;38.40
64670;DHT22;51080;51.690;5.174;2023-02-28T15:15:59;10.10;38.90
64670;DHT22;51080;51.690;5.174;2023-02-28T15:22:17;10.00;39.50
64670;DHT22;51080;51.690;5.174;2023-02-28T15:28:04;9.70;39.90
64670;DHT22;51080;51.690;5.174;2023-02-28T15:33:57;9.40;39.90
64670;DHT22;51080;51.690;5.174;2023-02-28T15:39:42;9.10;40.50
64670;DHT22;51080;51.690;5.174;2023-02-28T15:45:33;8.90;39.90
64670;DHT22;51080;51.690;5.174;2023-02-28T15:51:29;8.60;40.50
64670;DHT22;51080;51.690;5.174;2023-02-28T15:57:14;8.40;40.50
64670;DHT22;51080;51.690;5.174;2023-02-28T16:03:00;8.30;40.70
64670;DHT22;51080;51.690;5.174;2023-02-28T16:08:44;8.10;41.10
64670;DHT22;51080;51.690;5.174;2023-02-28T16:14:30;8.10;41.60
64670;DHT22;51080;51.690;5.174;2023-02-28T16:20:25;8.00;41.60
64670;DHT22;51080;51.690;5.174;2023-02-28T16:26:19;8.00;42.10
64670;DHT22;51080;51.690;5.174;2023-02-28T16:32:05;8.00;41.80
64670;DHT22;51080;51.690;5.174;2023-02-28T16:37:53;7.80;41.90
64670;DHT22;51080;51.690;5.174;2023-02-28T16:43:38;7.50;42.50
64670;DHT22;51080;51.690;5.174;2023-02-28T16:49:23;7.30;43.20
64670;DHT22;51080;51.690;5.174;2023-02-28T16:55:09;7.20;43.10
64670;DHT22;51080;51.690;5.174;2023-02-28T17:00:53;7.10;43.50
64670;DHT22;51080;51.690;5.174;2023-02-28T17:06:38;6.90;43.30
64670;DHT22;51080;51.690;5.174;2023-02-28T17:12:21;6.60;43.70
64670;DHT22;51080;51.690;5.174;2023-02-28T17:18:06;6.40;44.30
64670;DHT22;51080;51.690;5.174;2023-02-28T17:23:52;6.20;44.70
64670;DHT22;51080;51.690;5.174;2023-02-28T17:29:37;6.00;45.00
64670;DHT22;51080;51.690;5.174;2023-02-28T17:35:20;5.90;45.20
64670;DHT22;51080;51.690;5.174;2023-02-28T17:41:04;5.70;45.80
64670;DHT22;51080;51.690;5.174;2023-02-28T17:46:48;5.50;46.20
64670;DHT22;51080;51.690;5.174;2023-02-28T17:52:33;5.30;46.60
64670;DHT22;51080;51.690;5.174;2023-02-28T17:58:17;5.10;47.00
64670;DHT22;51080;51.690;5.174;2023-02-28T18:04:32;5.00;47.40
64670;DHT22;51080;51.690;5.174;2023-02-28T18:10:20;4.80;47.90
64670;DHT22;51080;51.690;5.174;2023-02-28T18:16:08;4.60;48.00
64670;DHT22;51080;51.690;5.174;2023-02-28T18:21:53;4.50;48.20
64670;DHT22;51080;51.690;5.174;2023-02-28T18:27:38;4.40;48.50
64670;DHT22;51080;51.690;5.174;2023-02-28T18:33:21;4.20;48.80
64670;DHT22;51080;51.690;5.174;2023-02-28T18:39:07;4.00;48.90
64670;DHT22;51080;51.690;5.174;2023-02-28T18:44:52;3.90;49.20
64670;DHT22;51080;51.690;5.174;2023-02-28T18:50:37;3.70;49.40
64670;DHT22;51080;51.690;5.174;2023-02-28T18:56:25;3.60;50.10
64670;DHT22;51080;51.690;5.174;2023-02-28T19:02:40;3.40;50.40
64670;DHT22;51080;51.690;5.174;2023-02-28T19:08:24;3.20;50.50
64670;DHT22;51080;51.690;5.174;2023-02-28T19:14:39;3.10;50.90
64670;DHT22;51080;51.690;5.174;2023-02-28T19:20:24;2.90;50.90
64670;DHT22;51080;51.690;5.174;2023-02-28T19:26:12;2.80;51.30
64670;DHT22;51080;51.690;5.174;2023-02-28T19:31:57;2.70;51.50
64670;DHT22;51080;51.690;5.174;2023-02-28T19:37:41;2.60;51.50
64670;DHT22;51080;51.690;5.174;2023-02-28T19:43:26;2.50;51.70
64670;DHT22;51080;51.690;5.174;2023-02-28T19:49:10;2.40;51.90
64670;DHT22;51080;51.690;5.174;2023-02-28T19:54:54;2.30;52.20
64670;DHT22;51080;51.690;5.174;2023-02-28T20:00:39;2.20;52.40
64670;DHT22;51080;51.690;5.174;2023-02-28T20:06:24;2.10;52.60
64670;DHT22;51080;51.690;5.174;2023-02-28T20:12:39;2.00;52.60
64670;DHT22;51080;51.690;5.174;2023-02-28T20:18:24;1.90;52.80
64670;DHT22;51080;51.690;5.174;2023-02-28T20:24:09;1.80;53.20
64670;DHT22;51080;51.690;5.174;2023-02-28T20:29:54;1.80;53.40
64670;DHT22;51080;51.690;5.174;2023-02-28T20:35:38;1.70;53.60
64670;DHT22;51080;51.690;5.174;2023-02-28T20:41:22;1.70;53.80
64670;DHT22;51080;51.690;5.174;2023-02-28T20:47:38;1.70;53.80
64670;DHT22;51080;51.690;5.174;2023-02-28T20:53:25;1.50;53.70
64670;DHT22;51080;51.690;5.174;2023-02-28T20:59:10;1.50;53.90
64670;DHT22;51080;51.690;5.174;2023-02-28T21:04:55;1.50;53.90
64670;DHT22;51080;51.690;5.174;2023-02-28T21:10:40;1.40;54.10
64670;DHT22;51080;51.690;5.174;2023-02-28T21:16:26;1.40;54.40
64670;DHT22;51080;51.690;5.174;2023-02-28T21:22:10;1.30;54.40
64670;DHT22;51080;51.690;5.174;2023-02-28T21:27:55;1.30;54.90
64670;DHT22;51080;51.690;5.174;2023-02-28T21:33:39;1.50;58.70
64670;DHT22;51080;51.690;5.174;2023-02-28T21:39:25;1.50;57.10
64670;DHT22;51080;51.690;5.174;2023-02-28T21:45:10;1.50;56.50
64670;DHT22;51080;51.690;5.174;2023-02-28T21:51:03;1.50;56.30
64670;DHT22;51080;51.690;5.174;2023-02-28T21:56:48;1.50;57.00
64670;DHT22;51080;51.690;5.174;2023-02-28T22:02:33;1.40;55.80
64670;DHT22;51080;51.690;5.174;2023-02-28T22:08:51;1.30;55.40
64670;DHT22;51080;51.690;5.174;2023-02-28T22:14:38;1.20;55.30
64670;DHT22;51080;51.690;5.174;2023-02-28T22:20:24;1.10;55.50
64670;DHT22;51080;51.690;5.174;2023-02-28T22:26:11;1.00;55.50
64670;DHT22;51080;51.690;5.174;2023-02-28T22:31:56;0.90;55.70
64670;DHT22;51080;51.690;5.174;2023-02-28T22:37:42;0.80;55.80
64670;DHT22;51080;51.690;5.174;2023-02-28T22:43:59;0.70;55.90
64670;DHT22;51080;51.690;5.174;2023-02-28T22:49:44;0.70;55.60
64670;DHT22;51080;51.690;5.174;2023-02-28T22:55:29;0.70;55.90
64670;DHT22;51080;51.690;5.174;2023-02-28T23:01:15;0.60;55.90
64670;DHT22;51080;51.690;5.174;2023-02-28T23:07:01;0.60;56.00
64670;DHT22;51080;51.690;5.174;2023-02-28T23:14:38;0.60;57.30
64670;DHT22;51080;51.690;5.174;2023-02-28T23:20:21;0.70;55.90
64670;DHT22;51080;51.690;5.174;2023-02-28T23:26:07;0.60;55.90
64670;DHT22;51080;51.690;5.174;2023-02-28T23:31:53;0.50;56.00
64670;DHT22;51080;51.690;5.174;2023-02-28T23:37:39;0.40;56.20
64670;DHT22;51080;51.690;5.174;2023-02-28T23:43:23;0.30;56.30
64670;DHT22;51080;51.690;5.174;2023-02-28T23:49:37;0.20;56.50
64670;DHT22;51080;51.690;5.174;2023-02-28T23:55:23;0.20;56.30
